| time (UTC) | temp F | wind direction | speed MPH | gust MPH | rain 1hr in | rain 24hr in | rain mn in | humidity % | barometer mb |
| 20260905232009 | 87 | 197 | 2.0 | 8.0 | 0.00 | 0.00 | 0.00 | 72 | 1013.2 |
| 20260905230457 | 88 | 241 | 2.0 | 7.0 | 0.00 | 0.00 | 0.00 | 71 | 1013.2 |
| 20260905224938 | 89 | 217 | 3.0 | 6.0 | 0.00 | 0.00 | 0.00 | 70 | 1013.5 |
| 20260905223418 | 89 | 84 | 4.0 | 7.0 | 0.00 | 0.00 | 0.00 | 68 | 1013.5 |
| 20260905221913 | 90 | 254 | 6.0 | 13.0 | 0.00 | 0.00 | 0.00 | 66 | 1013.2 |
| 20260905220408 | 93 | 216 | 6.0 | 11.0 | 0.00 | 0.00 | 0.00 | 62 | 1013.2 |
| 20260905214904 | 93 | 249 | 3.0 | 6.0 | 0.00 | 0.00 | 0.00 | 62 | 1013.2 |
| 20260905213400 | 94 | 203 | 5.0 | 9.0 | 0.00 | 0.00 | 0.00 | 61 | 1013.2 |
| 20260905211855 | 94 | 258 | 8.0 | 8.0 | 0.00 | 0.00 | 0.00 | 61 | 1013.2 |
| 20260905210351 | 98 | 224 | 2.0 | 3.0 | 0.00 | 0.00 | 0.00 | 47 | 1013.2 |
| 20260905204832 | 97 | 247 | 2.0 | 3.0 | 0.00 | 0.00 | 0.00 | 48 | 1013.2 |
| 20260905203328 | 97 | 196 | 2.0 | 5.0 | 0.00 | 0.00 | 0.00 | 46 | 1013.2 |
| 20260905201823 | 98 | 316 | 3.0 | 3.0 | 0.00 | 0.00 | 0.00 | 46 | 1013.5 |
| 20260905200304 | 98 | 199 | 1.0 | 2.0 | 0.00 | 0.00 | 0.00 | 46 | 1013.9 |
| 20260905194745 | 96 | 166 | 2.0 | 4.0 | 0.00 | 0.00 | 0.00 | 48 | 1014.2 |
| 20260905193241 | 97 | 139 | 6.0 | 7.0 | 0.00 | 0.00 | 0.00 | 47 | 1014.2 |
| 20260905191720 | 96 | 204 | 1.0 | 4.0 | 0.00 | 0.00 | 0.00 | 47 | 1014.6 |
| 20260905190214 | 99 | 161 | 4.0 | 4.0 | 0.00 | 0.00 | 0.00 | 45 | 1014.6 |
| 20260905184710 | 98 | 298 | 2.0 | 4.0 | 0.00 | 0.00 | 0.00 | 46 | 1014.6 |
| 20260905183150 | 96 | 136 | 5.0 | 7.0 | 0.00 | 0.00 | 0.00 | 48 | 1014.9 |
| 20260905181631 | 95 | 239 | 1.0 | 3.0 | 0.00 | 0.00 | 0.00 | 50 | 1015.2 |
| 20260905180127 | 96 | 306 | 5.0 | 7.0 | 0.00 | 0.00 | 0.00 | 48 | 1015.2 |
| 20260905174623 | 97 | 237 | 2.0 | 7.0 | 0.00 | 0.00 | 0.00 | 49 | 1015.2 |
| 20260905173115 | 96 | 166 | 7.0 | 7.0 | 0.00 | 0.00 | 0.00 | 51 | 1015.6 |
| 20260905171611 | 95 | 49 | 2.0 | 4.0 | 0.00 | 0.00 | 0.00 | 54 | 1015.9 |
| 20260905170106 | 95 | 231 | 3.0 | 4.0 | 0.00 | 0.00 | 0.00 | 54 | 1015.9 |
| 20260905164602 | 94 | 175 | 2.0 | 3.0 | 0.00 | 0.00 | 0.00 | 56 | 1016.3 |
| 20260905163059 | 94 | 240 | 2.0 | 3.0 | 0.00 | 0.00 | 0.00 | 55 | 1016.3 |
| 20260905161554 | 95 | 113 | 4.0 | 4.0 | 0.00 | 0.00 | 0.00 | 57 | 1016.6 |
| 20260905160041 | 94 | 299 | 2.0 | 6.0 | 0.00 | 0.00 | 0.00 | 57 | 1016.6 |
| 20260905154537 | 94 | 221 | 1.0 | 3.0 | 0.00 | 0.00 | 0.00 | 55 | 1016.6 |
| 20260905153027 | 93 | 213 | 0.0 | 2.0 | 0.00 | 0.00 | 0.00 | 56 | 1016.9 |
| 20260905151522 | 91 | 349 | 3.0 | 3.0 | 0.00 | 0.00 | 0.00 | 58 | 1016.9 |
| 20260905150013 | 91 | 318 | 3.0 | 4.0 | 0.00 | 0.00 | 0.00 | 63 | 1016.9 |
| 20260905144509 | 90 | 256 | 2.0 | 3.0 | 0.00 | 0.00 | 0.00 | 63 | 1016.9 |
| 20260905143005 | 87 | 132 | 2.0 | 2.0 | 0.00 | 0.00 | 0.00 | 67 | 1017.3 |
| 20260905141501 | 86 | 239 | 2.0 | 5.0 | 0.00 | 0.00 | 0.00 | 71 | 1017.3 |
| 20260905135957 | 85 | 218 | 0.0 | 4.0 | 0.00 | 0.00 | 0.00 | 74 | 1017.3 |
| 20260905134453 | 83 | 201 | 0.0 | 2.0 | 0.00 | 0.00 | 0.00 | 78 | 1017.3 |
| 20260905132948 | 81 | 213 | 1.0 | 2.0 | 0.00 | 0.00 | 0.00 | 82 | 1017.3 |
| 20260905131429 | 80 | 211 | 0.0 | 0.0 | 0.00 | 0.00 | 0.00 | 86 | 1017.3 |
| 20260905125923 | 76 | 251 | 1.0 | 1.0 | 0.00 | 0.00 | 0.00 | 96 | 1017.6 |
| 20260905124419 | 75 | 169 | 1.0 | 2.0 | 0.00 | 0.00 | 0.00 | 98 | 1017.6 |
| 20260905122912 | 75 | 226 | 1.0 | 1.0 | 0.00 | 0.00 | 0.00 | 98 | 1017.6 |
| 20260905121408 | 74 | 228 | 1.0 | 1.0 | 0.00 | 0.00 | 0.00 | 99 | 1017.3 |